createdAt,value
2023-05-12T00:00:31.829Z,33.24
2023-05-12T00:01:31.899Z,33.22
2023-05-12T00:02:32.079Z,33.33
2023-05-12T00:03:32.210Z,33.34
2023-05-12T00:04:32.063Z,33.29
2023-05-12T00:05:32.096Z,33.24
2023-05-12T00:06:32.165Z,33.21
2023-05-12T00:07:32.232Z,33.20
2023-05-12T00:08:32.292Z,33.22
2023-05-12T00:09:32.356Z,33.26
2023-05-12T00:10:32.427Z,33.32
2023-05-12T00:11:32.513Z,33.30
2023-05-12T00:12:32.547Z,33.27
2023-05-12T00:13:32.683Z,33.23
2023-05-12T00:14:32.667Z,33.23
2023-05-12T00:15:32.734Z,33.33
2023-05-12T00:16:32.892Z,33.24
2023-05-12T00:17:32.895Z,33.23
2023-05-12T00:18:32.963Z,33.23
2023-05-12T00:19:32.982Z,33.27
2023-05-12T00:20:33.072Z,33.28
2023-05-12T00:21:33.101Z,33.22
2023-05-12T00:22:33.170Z,33.26
2023-05-12T00:23:33.236Z,33.22
2023-05-12T00:24:33.264Z,33.20
2023-05-12T00:25:33.355Z,33.28
2023-05-12T00:26:33.401Z,33.28
2023-05-12T00:27:33.462Z,33.24
2023-05-12T00:28:33.514Z,33.26
2023-05-12T00:29:33.574Z,33.23
2023-05-12T00:30:33.641Z,33.23
2023-05-12T00:31:33.746Z,33.22
2023-05-12T00:32:33.787Z,33.24
2023-05-12T00:33:33.830Z,33.23
2023-05-12T00:34:33.876Z,33.27
2023-05-12T00:35:33.940Z,33.23
2023-05-12T00:36:34.000Z,33.19
2023-05-12T00:37:34.051Z,33.23
2023-05-12T00:38:34.140Z,33.28
2023-05-12T00:39:34.159Z,33.26
2023-05-12T00:40:34.273Z,33.22
2023-05-12T00:41:34.296Z,33.24
2023-05-12T00:42:34.351Z,33.26
2023-05-12T00:43:34.423Z,33.28
2023-05-12T00:44:34.470Z,33.24
2023-05-12T00:45:34.590Z,33.30
2023-05-12T00:46:34.602Z,33.23
2023-05-12T00:47:34.721Z,33.25
2023-05-12T00:48:34.736Z,33.25
2023-05-12T00:49:34.802Z,33.22
2023-05-12T00:50:34.887Z,33.24
2023-05-12T00:51:34.915Z,33.24
2023-05-12T00:52:34.957Z,33.28
2023-05-12T00:53:47.687Z,33.37
2023-05-12T00:54:36.010Z,33.27
2023-05-12T00:55:35.024Z,33.20
2023-05-12T00:56:35.008Z,33.24
2023-05-12T00:57:34.990Z,33.24
2023-05-12T00:58:35.040Z,33.25
2023-05-12T00:59:34.998Z,33.29
2023-05-12T01:00:34.982Z,33.28
2023-05-12T01:01:35.048Z,33.24
2023-05-12T01:02:35.150Z,33.22
2023-05-12T01:03:35.189Z,33.28
2023-05-12T01:04:35.178Z,33.25
2023-05-12T01:05:35.213Z,33.24
2023-05-12T01:06:35.288Z,33.34
2023-05-12T01:07:35.316Z,33.24
2023-05-12T01:08:35.386Z,33.27
2023-05-12T01:09:35.442Z,33.25
2023-05-12T01:10:35.511Z,33.22
2023-05-12T01:11:35.561Z,33.25
2023-05-12T01:12:35.617Z,33.28
2023-05-12T01:13:35.665Z,33.29
2023-05-12T01:14:35.703Z,33.29
2023-05-12T01:15:35.742Z,33.27
2023-05-12T01:16:35.808Z,33.37
2023-05-12T01:17:36.088Z,33.38
2023-05-12T01:18:36.101Z,33.24
2023-05-12T01:19:35.946Z,33.34
2023-05-12T01:20:36.001Z,33.39
2023-05-12T01:21:36.068Z,33.39
2023-05-12T01:22:36.135Z,33.49
2023-05-12T01:23:36.197Z,33.44
2023-05-12T01:24:36.254Z,33.45
2023-05-12T01:25:36.298Z,33.46
2023-05-12T01:26:36.363Z,33.44
2023-05-12T01:27:36.404Z,33.43
2023-05-12T01:28:36.450Z,33.39
2023-05-12T01:29:36.502Z,33.46
2023-05-12T01:30:36.576Z,33.42
2023-05-12T01:31:36.692Z,33.52
2023-05-12T01:32:36.741Z,33.43
2023-05-12T01:33:36.724Z,33.38
2023-05-12T01:34:36.814Z,33.43
2023-05-12T01:35:36.829Z,33.46
2023-05-12T01:36:36.890Z,33.39
2023-05-12T01:37:36.959Z,33.31
2023-05-12T01:38:37.024Z,33.42
2023-05-12T01:39:37.057Z,33.39
2023-05-12T01:40:37.125Z,33.46
2023-05-12T01:41:37.167Z,33.40
2023-05-12T01:42:37.182Z,33.42
2023-05-12T01:43:37.237Z,33.36
2023-05-12T01:44:37.252Z,33.42
2023-05-12T01:45:37.286Z,33.43
2023-05-12T01:46:37.366Z,33.38
2023-05-12T01:47:37.378Z,33.36
2023-05-12T01:48:37.385Z,33.40
2023-05-12T01:49:37.394Z,33.42
2023-05-12T01:50:37.423Z,33.43
2023-05-12T01:51:37.432Z,33.45
2023-05-12T01:52:37.467Z,33.37
2023-05-12T01:53:37.520Z,33.45
2023-05-12T01:54:37.538Z,33.44
2023-05-12T01:55:37.589Z,33.46
2023-05-12T01:56:37.547Z,33.47
2023-05-12T01:57:37.570Z,33.45
2023-05-12T01:58:37.617Z,33.57
2023-05-12T01:59:37.572Z,33.51
2023-05-12T02:00:37.596Z,33.38
2023-05-12T02:01:37.691Z,33.40
2023-05-12T02:02:37.703Z,33.47
2023-05-12T02:03:37.775Z,33.43
2023-05-12T02:04:37.698Z,33.43
2023-05-12T02:05:37.711Z,33.50
2023-05-12T02:06:37.771Z,33.47
2023-05-12T02:07:37.773Z,33.44
2023-05-12T02:08:37.787Z,33.50
2023-05-12T02:09:37.815Z,33.51
2023-05-12T02:10:37.904Z,33.43
2023-05-12T02:11:37.861Z,33.55
2023-05-12T02:12:37.926Z,33.50
2023-05-12T02:13:37.979Z,33.55
2023-05-12T02:14:37.901Z,33.58
2023-05-12T02:15:37.930Z,33.53
2023-05-12T02:16:38.131Z,33.57
2023-05-12T02:17:38.134Z,33.53
2023-05-12T02:18:38.002Z,33.47
2023-05-12T02:19:38.112Z,33.47
2023-05-12T02:20:37.995Z,33.48
2023-05-12T02:21:38.050Z,33.51
2023-05-12T02:22:37.961Z,33.48
2023-05-12T02:23:38.043Z,33.45
2023-05-12T02:24:38.015Z,33.45
2023-05-12T02:25:37.965Z,33.53
2023-05-12T02:26:38.030Z,33.48
2023-05-12T02:27:38.026Z,33.50
2023-05-12T02:28:38.080Z,33.50
2023-05-12T02:29:38.035Z,33.48
2023-05-12T02:30:37.943Z,33.54
2023-05-12T02:31:38.017Z,33.47
2023-05-12T02:32:37.950Z,33.47
2023-05-12T02:33:37.924Z,33.45
2023-05-12T02:34:37.923Z,33.44
2023-05-12T02:35:37.904Z,33.47
2023-05-12T02:36:37.916Z,33.52
2023-05-12T02:37:37.912Z,33.47
2023-05-12T02:38:37.910Z,33.42
2023-05-12T02:39:37.915Z,33.47
2023-05-12T02:40:37.902Z,33.48
2023-05-12T02:41:37.915Z,33.45
2023-05-12T02:42:37.913Z,33.52
2023-05-12T02:43:37.887Z,33.45
2023-05-12T02:44:37.892Z,33.48
2023-05-12T02:45:37.910Z,33.56
2023-05-12T02:46:37.904Z,33.48
2023-05-12T02:47:37.915Z,33.47
2023-05-12T02:48:37.869Z,33.44
2023-05-12T02:49:37.860Z,33.55
2023-05-12T02:50:37.876Z,33.46
2023-05-12T02:51:37.852Z,33.45
2023-05-12T02:52:37.851Z,33.38
2023-05-12T02:53:37.851Z,33.45
2023-05-12T02:54:37.861Z,33.47
2023-05-12T02:55:37.849Z,33.48
2023-05-12T02:56:37.857Z,33.42
2023-05-12T02:57:37.843Z,33.38
2023-05-12T02:58:37.831Z,33.40
2023-05-12T02:59:37.827Z,33.39
2023-05-12T03:00:37.827Z,33.42
2023-05-12T03:01:37.927Z,33.38
2023-05-12T03:02:37.887Z,33.48
2023-05-12T03:03:38.067Z,33.44
2023-05-12T03:04:37.824Z,33.45
2023-05-12T03:05:37.806Z,33.38
2023-05-12T03:06:38.046Z,33.35
2023-05-12T03:07:37.811Z,33.40
2023-05-12T03:08:37.804Z,33.44
2023-05-12T03:09:37.797Z,33.47
2023-05-12T03:10:37.787Z,33.41
2023-05-12T03:11:37.800Z,33.44
2023-05-12T03:12:37.781Z,33.42
2023-05-12T03:13:37.797Z,33.41
2023-05-12T03:14:37.790Z,33.37
2023-05-12T03:15:37.782Z,33.42
2023-05-12T03:16:37.803Z,33.43
2023-05-12T03:17:37.885Z,33.37
2023-05-12T03:18:37.784Z,33.38
2023-05-12T03:19:37.765Z,33.51
2023-05-12T03:20:37.758Z,33.49
2023-05-12T03:21:37.766Z,33.45
2023-05-12T03:22:37.795Z,33.44
2023-05-12T03:23:37.760Z,33.41
2023-05-12T03:24:37.735Z,33.34
2023-05-12T03:25:37.738Z,33.42
2023-05-12T03:26:37.724Z,33.35
2023-05-12T03:27:37.744Z,33.38
2023-05-12T03:28:37.734Z,33.42
2023-05-12T03:29:37.711Z,33.35
2023-05-12T03:30:37.712Z,33.39
2023-05-12T03:31:37.745Z,33.39
2023-05-12T03:32:37.775Z,33.37
2023-05-12T03:33:37.693Z,33.35
2023-05-12T03:34:37.724Z,33.37
2023-05-12T03:35:37.702Z,33.41
2023-05-12T03:36:37.697Z,33.33
2023-05-12T03:37:37.701Z,33.37
2023-05-12T03:38:37.679Z,33.34
2023-05-12T03:39:37.704Z,33.37
2023-05-12T03:40:37.706Z,33.48
2023-05-12T03:41:37.685Z,33.46
2023-05-12T03:42:37.681Z,33.40
2023-05-12T03:43:37.692Z,33.39
2023-05-12T03:44:37.722Z,33.38
2023-05-12T03:45:37.721Z,33.45
2023-05-12T03:46:37.861Z,33.44
2023-05-12T03:47:38.010Z,33.42
2023-05-12T03:48:37.720Z,33.41
2023-05-12T03:49:37.709Z,33.39
2023-05-12T03:50:37.708Z,33.38
2023-05-12T03:51:37.701Z,33.35
2023-05-12T03:52:37.692Z,33.39
2023-05-12T03:53:37.702Z,33.34
2023-05-12T03:54:38.100Z,33.37
2023-05-12T03:55:37.678Z,33.32
2023-05-12T03:56:37.746Z,33.38
2023-05-12T03:57:37.757Z,33.42
2023-05-12T03:58:37.676Z,33.39
2023-05-12T03:59:37.672Z,33.35
2023-05-12T04:00:38.900Z,33.39
2023-05-12T04:01:37.755Z,33.41
2023-05-12T04:02:37.727Z,33.40
2023-05-12T04:03:37.735Z,33.41
2023-05-12T04:04:37.667Z,33.32
2023-05-12T04:05:37.660Z,33.32
2023-05-12T04:06:37.671Z,33.37
2023-05-12T04:07:37.633Z,33.38
2023-05-12T04:08:39.013Z,33.39
2023-05-12T04:09:37.632Z,33.41
2023-05-12T04:10:37.633Z,33.29
2023-05-12T04:11:37.606Z,33.27
2023-05-12T04:12:37.607Z,33.38
2023-05-12T04:13:37.630Z,33.41
2023-05-12T04:14:42.934Z,33.39
2023-05-12T04:15:38.582Z,33.38
2023-05-12T04:16:37.715Z,33.35
2023-05-12T04:17:37.625Z,33.39
2023-05-12T04:18:37.565Z,33.37
2023-05-12T04:19:37.550Z,33.38
2023-05-12T04:20:37.549Z,33.38
2023-05-12T04:21:37.537Z,33.38
2023-05-12T04:22:37.534Z,33.35
2023-05-12T04:23:37.519Z,33.43
2023-05-12T04:24:37.523Z,33.38
2023-05-12T04:25:37.512Z,33.42
2023-05-12T04:26:37.538Z,33.40
2023-05-12T04:27:37.512Z,33.46
2023-05-12T04:28:37.483Z,33.45
2023-05-12T04:29:37.484Z,33.47
2023-05-12T04:30:37.491Z,33.42
2023-05-12T04:31:37.522Z,33.45
2023-05-12T04:32:37.469Z,33.39
2023-05-12T04:33:37.473Z,33.49
2023-05-12T04:34:37.456Z,33.47
2023-05-12T04:35:37.453Z,33.41
2023-05-12T04:36:37.435Z,33.42
2023-05-12T04:37:37.432Z,33.47
2023-05-12T04:38:37.452Z,33.56
2023-05-12T04:39:37.417Z,33.44
2023-05-12T04:40:37.406Z,33.50
2023-05-12T04:41:37.401Z,33.49
2023-05-12T04:42:37.463Z,33.36
2023-05-12T04:44:37.374Z,33.40
2023-05-12T04:45:37.372Z,33.40
2023-05-12T04:46:37.420Z,33.38
2023-05-12T04:47:37.408Z,33.40
2023-05-12T04:48:37.354Z,33.32
2023-05-12T04:49:37.345Z,33.33
2023-05-12T04:50:37.339Z,33.29
2023-05-12T04:51:37.344Z,33.32
2023-05-12T04:52:37.321Z,33.35
2023-05-12T04:53:37.316Z,33.36
2023-05-12T04:54:37.297Z,33.46
2023-05-12T04:55:37.317Z,33.39
2023-05-12T04:56:37.292Z,33.43
2023-05-12T04:57:37.288Z,33.35
2023-05-12T04:58:37.281Z,33.40
2023-05-12T04:59:37.883Z,33.43
2023-05-12T05:00:37.269Z,33.44
2023-05-12T05:01:37.324Z,33.46
2023-05-12T05:02:37.349Z,33.41
2023-05-12T05:03:37.307Z,33.42
2023-05-12T05:04:37.241Z,33.38
2023-05-12T05:05:37.233Z,33.40
2023-05-12T05:06:37.226Z,33.36
2023-05-12T05:07:37.218Z,33.30
2023-05-12T05:08:37.207Z,33.40
2023-05-12T05:09:37.232Z,33.39
2023-05-12T05:10:37.194Z,33.35
2023-05-12T05:11:37.176Z,33.32
2023-05-12T05:12:37.178Z,33.23
2023-05-12T05:13:37.179Z,33.22
2023-05-12T05:14:37.169Z,33.27
2023-05-12T05:15:37.179Z,33.16
2023-05-12T05:16:37.149Z,33.14
2023-05-12T05:17:37.172Z,33.21
2023-05-12T05:18:37.184Z,33.17
2023-05-12T05:19:49.958Z,33.11
2023-05-12T05:20:40.942Z,33.18
2023-05-12T05:21:38.108Z,33.18
2023-05-12T05:22:37.121Z,33.15
2023-05-12T05:23:37.144Z,33.17
2023-05-12T05:24:37.108Z,33.20
2023-05-12T05:25:37.091Z,33.17
2023-05-12T05:26:37.086Z,33.18
2023-05-12T05:27:37.119Z,33.21
2023-05-12T05:28:37.065Z,33.15
2023-05-12T05:29:37.066Z,33.09
2023-05-12T05:30:37.067Z,33.02
2023-05-12T05:31:37.058Z,32.95
2023-05-12T05:32:37.383Z,32.92
2023-05-12T05:33:37.106Z,32.71
2023-05-12T05:34:37.067Z,32.87
2023-05-12T05:35:37.028Z,32.88
2023-05-12T05:36:37.008Z,33.21
2023-05-12T05:37:37.014Z,33.31
2023-05-12T05:38:36.999Z,33.57
2023-05-12T05:39:37.014Z,33.91
2023-05-12T05:40:51.529Z,34.06
2023-05-12T05:41:38.000Z,33.89
2023-05-12T05:42:36.970Z,34.03
2023-05-12T05:43:36.956Z,34.21
2023-05-12T05:44:36.953Z,34.12
2023-05-12T05:45:36.942Z,34.27
2023-05-12T05:46:36.942Z,34.39
2023-05-12T05:47:36.957Z,34.70
2023-05-12T05:48:36.921Z,35.02
2023-05-12T05:49:36.961Z,35.18
2023-05-12T05:50:37.019Z,34.76
2023-05-12T05:51:37.077Z,35.32
2023-05-12T05:52:37.143Z,35.13
2023-05-12T05:53:37.226Z,35.39
2023-05-12T05:54:37.254Z,35.91
2023-05-12T05:55:37.296Z,35.46
2023-05-12T05:56:37.357Z,35.87
2023-05-12T05:57:37.414Z,35.43
2023-05-12T05:58:37.462Z,35.51
2023-05-12T05:59:37.499Z,35.23
2023-05-12T06:00:37.567Z,35.58
2023-05-12T06:01:37.668Z,35.79
2023-05-12T06:02:37.826Z,35.99
2023-05-12T06:03:37.755Z,36.05
2023-05-12T06:04:37.730Z,36.08
2023-05-12T06:05:37.785Z,36.21
2023-05-12T06:06:37.845Z,35.97
2023-05-12T06:07:37.882Z,35.97
2023-05-12T06:08:37.968Z,36.22
2023-05-12T06:09:37.960Z,36.25
2023-05-12T06:10:37.991Z,36.34
2023-05-12T06:11:38.058Z,36.26
2023-05-12T06:12:38.386Z,36.40
2023-05-12T06:13:38.139Z,36.48
2023-05-12T06:14:38.175Z,36.59
2023-05-12T06:15:38.185Z,36.66
2023-05-12T06:16:38.284Z,36.38
2023-05-12T06:17:38.375Z,36.75
2023-05-12T06:18:38.488Z,36.60
2023-05-12T06:19:38.332Z,36.34
2023-05-12T06:20:38.357Z,36.08
2023-05-12T06:21:38.386Z,36.71
2023-05-12T06:22:38.445Z,36.74
2023-05-12T06:23:38.466Z,36.76
2023-05-12T06:24:38.486Z,36.59
2023-05-12T06:25:38.520Z,36.63
2023-05-12T06:26:38.540Z,36.85
2023-05-12T06:27:38.563Z,36.76
2023-05-12T06:28:38.589Z,36.69
2023-05-12T06:29:38.608Z,36.81
2023-05-12T06:30:38.658Z,36.42
2023-05-12T06:31:38.659Z,36.59
2023-05-12T06:32:38.749Z,36.59
2023-05-12T06:33:38.686Z,36.61
2023-05-12T06:34:38.782Z,36.58
2023-05-12T06:35:38.760Z,36.52
2023-05-12T06:36:38.750Z,36.59
2023-05-12T06:37:38.780Z,36.54
2023-05-12T06:38:38.777Z,35.85
2023-05-12T06:39:38.811Z,35.52
2023-05-12T06:40:38.856Z,35.29
2023-05-12T06:41:38.821Z,35.12
2023-05-12T06:42:38.876Z,35.19
2023-05-12T06:43:38.860Z,34.96
2023-05-12T06:44:41.143Z,34.89
2023-05-12T06:45:38.906Z,34.76
2023-05-12T06:46:38.984Z,34.79
2023-05-12T06:47:38.923Z,34.79
2023-05-12T06:48:38.856Z,34.65
2023-05-12T06:49:38.866Z,34.65
2023-05-12T06:50:38.848Z,34.48
2023-05-12T06:51:38.848Z,34.41
2023-05-12T06:52:38.837Z,34.51
2023-05-12T06:53:38.863Z,34.34
2023-05-12T06:54:38.885Z,34.21
2023-05-12T06:55:38.812Z,34.31
2023-05-12T06:56:38.822Z,34.20
2023-05-12T06:57:38.807Z,34.03
2023-05-12T06:58:38.802Z,34.10
2023-05-12T06:59:38.780Z,33.95
2023-05-12T07:00:38.797Z,34.02
2023-05-12T07:01:38.840Z,33.98
2023-05-12T07:02:38.840Z,33.94
2023-05-12T07:03:38.851Z,33.83
2023-05-12T07:04:38.752Z,33.84
2023-05-12T07:05:38.775Z,33.82
2023-05-12T07:06:38.731Z,33.79
2023-05-12T07:07:38.751Z,33.74
2023-05-12T07:08:38.714Z,33.75
2023-05-12T07:09:38.730Z,33.72
2023-05-12T07:10:38.745Z,33.67
2023-05-12T07:11:38.709Z,33.56
2023-05-12T07:12:38.742Z,33.40
2023-05-12T07:13:38.684Z,33.46
2023-05-12T07:14:38.668Z,33.50
2023-05-12T07:15:38.746Z,33.49
2023-05-12T07:16:38.726Z,33.43
2023-05-12T07:17:38.721Z,33.52
2023-05-12T07:18:38.765Z,33.45
2023-05-12T07:19:38.642Z,33.45
2023-05-12T07:20:38.633Z,33.45
2023-05-12T07:21:38.676Z,33.38
2023-05-12T07:22:39.086Z,33.06
2023-05-12T07:23:38.616Z,32.84
2023-05-12T07:24:38.612Z,32.90
2023-05-12T07:25:38.675Z,32.90
2023-05-12T07:26:38.597Z,32.97
2023-05-12T07:27:38.581Z,32.89
2023-05-12T07:28:38.891Z,32.94
2023-05-12T07:29:38.588Z,33.04
2023-05-12T07:30:38.566Z,33.06
2023-05-12T07:31:38.629Z,33.10
2023-05-12T07:32:38.569Z,33.07
2023-05-12T07:33:38.553Z,32.91
2023-05-12T07:34:38.529Z,33.81
2023-05-12T07:35:38.527Z,33.88
2023-05-12T07:36:38.529Z,34.09
2023-05-12T07:37:38.519Z,33.94
2023-05-12T07:38:38.539Z,34.25
2023-05-12T07:39:38.515Z,34.36
2023-05-12T07:40:38.505Z,34.54
2023-05-12T07:41:38.491Z,34.56
2023-05-12T07:42:38.473Z,34.78
2023-05-12T07:43:38.467Z,34.46
2023-05-12T07:44:38.523Z,34.24
2023-05-12T07:45:38.686Z,34.30
2023-05-12T07:46:38.516Z,34.37
2023-05-12T07:47:38.547Z,34.48
2023-05-12T07:48:38.444Z,34.51
2023-05-12T07:49:38.424Z,34.83
2023-05-12T07:50:38.422Z,34.72
2023-05-12T07:51:38.422Z,34.16
2023-05-12T07:52:38.419Z,34.15
2023-05-12T07:53:38.405Z,34.16
2023-05-12T07:54:38.402Z,34.44
2023-05-12T07:55:38.389Z,34.24
2023-05-12T07:56:38.371Z,34.49
2023-05-12T07:57:38.385Z,34.16
2023-05-12T07:58:38.364Z,34.60
2023-05-12T07:59:38.358Z,34.14
2023-05-12T08:00:38.403Z,33.97
2023-05-12T08:01:38.370Z,33.75
2023-05-12T08:02:38.402Z,33.75
2023-05-12T08:03:38.533Z,33.83
2023-05-12T08:04:38.902Z,33.77
2023-05-12T08:05:38.307Z,33.81
2023-05-12T08:06:38.298Z,33.66
2023-05-12T08:07:38.281Z,33.78
2023-05-12T08:08:38.294Z,33.56
2023-05-12T08:09:38.308Z,33.60
2023-05-12T08:10:38.273Z,33.71
2023-05-12T08:11:38.314Z,33.53
2023-05-12T08:12:38.256Z,33.51
2023-05-12T08:13:38.264Z,33.45
2023-05-12T08:14:38.242Z,33.54
2023-05-12T08:15:38.246Z,33.58
2023-05-12T08:16:38.261Z,33.68
2023-05-12T08:17:38.253Z,33.47
2023-05-12T08:18:38.339Z,33.37
2023-05-12T08:19:38.292Z,33.46
2023-05-12T08:20:38.313Z,33.51
2023-05-12T08:21:38.354Z,33.50
2023-05-12T08:22:38.333Z,34.04
2023-05-12T08:23:38.418Z,33.80
2023-05-12T08:24:38.439Z,33.72
2023-05-12T08:25:38.385Z,33.45
2023-05-12T08:26:38.478Z,33.62
2023-05-12T08:27:38.411Z,33.60
2023-05-12T08:28:38.586Z,33.49
2023-05-12T08:29:38.442Z,33.14
2023-05-12T08:30:38.479Z,32.66
2023-05-12T08:31:38.523Z,32.46
2023-05-12T08:32:38.524Z,32.26
2023-05-12T08:33:38.518Z,32.27
2023-05-12T08:34:38.544Z,32.29
2023-05-12T08:35:38.568Z,31.89
2023-05-12T08:36:38.667Z,32.07
2023-05-12T08:37:38.622Z,31.90
2023-05-12T08:38:38.932Z,31.67
2023-05-12T08:39:38.669Z,31.71
2023-05-12T08:40:38.736Z,31.67
2023-05-12T08:41:38.732Z,31.55
2023-05-12T08:42:38.793Z,31.34
2023-05-12T08:43:38.833Z,31.58
2023-05-12T08:44:38.847Z,31.72
2023-05-12T08:45:38.937Z,31.76
2023-05-12T08:46:38.953Z,31.63
2023-05-12T08:47:38.970Z,31.93
2023-05-12T08:48:39.427Z,32.16
2023-05-12T08:49:39.022Z,32.29
2023-05-12T08:50:39.048Z,32.40
2023-05-12T08:51:39.085Z,32.63
2023-05-12T08:52:39.134Z,32.65
2023-05-12T08:53:39.437Z,32.70
2023-05-12T08:54:48.530Z,32.63
2023-05-12T08:55:40.180Z,32.67
2023-05-12T08:57:39.833Z,32.59
2023-05-12T08:58:41.587Z,32.50
2023-05-12T08:59:39.140Z,32.44
2023-05-12T09:00:39.214Z,32.44
2023-05-12T09:01:39.153Z,32.56
2023-05-12T09:02:52.102Z,32.70
2023-05-12T09:03:40.151Z,32.71
2023-05-12T09:04:39.189Z,32.70
2023-05-12T09:05:39.110Z,32.67
2023-05-12T09:06:39.097Z,32.85
2023-05-12T09:07:39.084Z,32.81
2023-05-12T09:08:39.080Z,33.04
2023-05-12T09:09:39.140Z,32.89
2023-05-12T09:10:39.069Z,33.16
2023-05-12T09:11:39.051Z,32.98
2023-05-12T09:12:39.062Z,32.86
2023-05-12T09:13:39.066Z,32.76
2023-05-12T09:14:39.126Z,32.74
2023-05-12T09:15:39.069Z,32.79
2023-05-12T09:16:39.112Z,32.66
2023-05-12T09:17:39.191Z,32.62
2023-05-12T09:18:39.203Z,32.49
2023-05-12T09:19:39.226Z,32.64
2023-05-12T09:20:39.273Z,32.57
2023-05-12T09:21:39.298Z,32.45
2023-05-12T09:22:39.343Z,32.49
2023-05-12T09:23:39.388Z,32.53
2023-05-12T09:24:39.416Z,32.46
2023-05-12T09:25:39.451Z,32.56
2023-05-12T09:26:39.553Z,32.41
2023-05-12T09:27:39.546Z,32.56
2023-05-12T09:28:39.562Z,32.77
2023-05-12T09:29:45.364Z,32.83
2023-05-12T09:30:40.617Z,33.00
2023-05-12T09:31:39.613Z,33.03
2023-05-12T09:32:39.611Z,32.72
2023-05-12T09:33:39.603Z,32.65
2023-05-12T09:34:39.623Z,32.76
2023-05-12T09:35:39.560Z,32.99
2023-05-12T09:36:39.550Z,33.14
2023-05-12T09:37:39.549Z,33.33
2023-05-12T09:38:39.596Z,33.49
2023-05-12T09:39:39.572Z,33.70
2023-05-12T09:40:39.520Z,33.76
2023-05-12T09:41:39.505Z,33.37
2023-05-12T09:42:39.539Z,33.44
2023-05-12T09:43:39.503Z,33.60
2023-05-12T09:44:39.491Z,33.71
2023-05-12T09:45:39.524Z,33.75
2023-05-12T09:46:39.481Z,33.81
2023-05-12T09:47:39.669Z,33.81
2023-05-12T09:48:39.960Z,33.85
2023-05-12T09:49:39.526Z,33.89
2023-05-12T09:50:46.861Z,33.91
2023-05-12T09:51:40.530Z,33.93
2023-05-12T09:52:39.545Z,33.96
2023-05-12T09:53:39.540Z,33.98
2023-05-12T09:54:39.512Z,33.99
2023-05-12T09:55:39.501Z,33.99
2023-05-12T09:56:39.493Z,34.00
2023-05-12T09:57:39.619Z,33.99
2023-05-12T09:58:39.588Z,33.99
2023-05-12T09:59:41.006Z,33.99
2023-05-12T10:00:58.533Z,34.02
2023-05-12T10:01:40.491Z,34.02
2023-05-12T10:02:39.651Z,34.05
2023-05-12T10:03:39.579Z,34.03
2023-05-12T10:04:39.518Z,34.08
2023-05-12T10:05:39.425Z,34.11
2023-05-12T10:06:39.428Z,34.13
2023-05-12T10:07:39.468Z,34.14
2023-05-12T10:08:39.422Z,34.17
2023-05-12T10:09:39.462Z,34.14
2023-05-12T10:10:39.404Z,34.13
2023-05-12T10:11:39.387Z,34.19
2023-05-12T10:12:39.369Z,34.16
2023-05-12T10:13:39.404Z,34.15
2023-05-12T10:14:39.381Z,34.19
2023-05-12T10:15:39.389Z,34.28
2023-05-12T10:16:39.361Z,34.31
2023-05-12T10:17:39.406Z,34.30
2023-05-12T10:18:39.404Z,34.34
2023-05-12T10:19:39.373Z,34.89
2023-05-12T10:20:39.321Z,34.79
2023-05-12T10:21:39.349Z,34.69
2023-05-12T10:22:39.313Z,34.66
2023-05-12T10:23:39.335Z,34.64
2023-05-12T10:24:39.354Z,34.68
2023-05-12T10:25:39.282Z,34.69
2023-05-12T10:26:39.299Z,34.69
2023-05-12T10:27:39.283Z,34.82
2023-05-12T10:28:39.269Z,34.59
2023-05-12T10:29:39.501Z,34.13
2023-05-12T10:30:39.358Z,34.02
2023-05-12T10:31:39.329Z,33.92
2023-05-12T10:32:39.273Z,33.55
2023-05-12T10:33:39.238Z,33.58
2023-05-12T10:34:39.253Z,33.19
2023-05-12T10:35:39.220Z,33.70
2023-05-12T10:36:39.222Z,33.78
2023-05-12T10:37:39.317Z,33.60
2023-05-12T10:38:39.194Z,33.37
2023-05-12T10:39:39.201Z,33.62
2023-05-12T10:40:39.189Z,33.93
2023-05-12T10:41:39.186Z,33.78
2023-05-12T10:42:39.174Z,33.64
2023-05-12T10:43:39.175Z,33.99
2023-05-12T10:44:39.168Z,34.03
2023-05-12T10:45:39.191Z,34.05
2023-05-12T10:46:39.188Z,33.57
2023-05-12T10:47:39.191Z,33.98
2023-05-12T10:48:39.126Z,33.95
2023-05-12T10:49:39.159Z,33.96
2023-05-12T10:50:39.127Z,34.04
2023-05-12T10:51:39.111Z,33.99
2023-05-12T10:52:39.114Z,34.05
2023-05-12T10:53:49.833Z,34.03
2023-05-12T10:54:40.471Z,34.03
2023-05-12T10:55:39.153Z,34.00
2023-05-12T10:56:39.350Z,33.96
2023-05-12T10:57:39.247Z,33.99
2023-05-12T10:58:39.438Z,34.00
2023-05-12T10:59:39.539Z,33.68
2023-05-12T11:00:39.576Z,33.79
2023-05-12T11:01:39.753Z,33.84
2023-05-12T11:02:40.160Z,33.33
2023-05-12T11:03:39.917Z,33.54
2023-05-12T11:04:39.799Z,33.63
2023-05-12T11:05:39.227Z,33.53
2023-05-12T11:06:39.346Z,33.67
2023-05-12T11:07:39.801Z,33.78
2023-05-12T11:08:39.959Z,33.75
2023-05-12T11:09:43.434Z,33.60
2023-05-12T11:10:40.063Z,33.67
2023-05-12T11:11:39.656Z,33.78
2023-05-12T11:12:38.961Z,33.60
2023-05-12T11:13:38.970Z,33.45
2023-05-12T11:14:38.997Z,33.31
2023-05-12T11:15:38.984Z,33.46
2023-05-12T11:16:38.983Z,33.48
2023-05-12T11:17:39.548Z,33.53
2023-05-12T11:18:38.975Z,33.59
2023-05-12T11:19:38.919Z,33.67
2023-05-12T11:20:38.927Z,33.67
2023-05-12T11:21:38.903Z,33.67
2023-05-12T11:22:39.053Z,33.62
2023-05-12T11:23:38.889Z,33.65
2023-05-12T11:24:38.890Z,33.65
2023-05-12T11:25:38.998Z,33.66
2023-05-12T11:26:38.868Z,33.66
2023-05-12T11:27:38.862Z,33.71
2023-05-12T11:28:38.878Z,33.72
2023-05-12T11:29:38.875Z,33.69
2023-05-12T11:30:38.844Z,33.67
2023-05-12T11:31:38.872Z,33.71
2023-05-12T11:32:38.908Z,33.66
2023-05-12T11:33:38.834Z,33.67
2023-05-12T11:34:38.811Z,33.63
2023-05-12T11:35:38.813Z,33.64
2023-05-12T11:36:38.807Z,33.70
2023-05-12T11:37:38.795Z,33.63
2023-05-12T11:38:38.809Z,33.66
2023-05-12T11:39:38.778Z,33.61
2023-05-12T11:40:38.781Z,33.61
2023-05-12T11:41:38.779Z,33.62
2023-05-12T11:42:38.748Z,33.60
2023-05-12T11:43:38.748Z,33.64
2023-05-12T11:44:38.737Z,33.61
2023-05-12T11:45:38.832Z,33.68
2023-05-12T11:46:38.731Z,33.72
2023-05-12T11:47:38.738Z,33.65
2023-05-12T11:48:38.709Z,33.65
2023-05-12T11:49:38.721Z,33.58
2023-05-12T11:50:38.700Z,33.62
2023-05-12T11:51:38.689Z,33.58
2023-05-12T11:52:38.689Z,33.59
2023-05-12T11:53:38.673Z,33.52
2023-05-12T11:54:38.695Z,33.55
2023-05-12T11:55:38.666Z,33.55
2023-05-12T11:56:38.652Z,33.54
2023-05-12T11:57:38.651Z,33.31
2023-05-12T11:58:38.636Z,33.37
2023-05-12T11:59:38.641Z,33.45
2023-05-12T12:00:38.629Z,33.41
2023-05-12T12:01:38.623Z,33.32
2023-05-12T12:02:38.678Z,33.32
2023-05-12T12:03:38.787Z,33.38
2023-05-12T12:04:39.567Z,33.39
2023-05-12T12:05:38.620Z,33.39
2023-05-12T12:06:38.589Z,33.31
2023-05-12T12:07:38.586Z,33.17
2023-05-12T12:08:38.588Z,33.21
2023-05-12T12:09:38.586Z,33.24
2023-05-12T12:10:38.592Z,33.26
2023-05-12T12:11:38.570Z,33.27
2023-05-12T12:12:38.604Z,33.27
2023-05-12T12:13:38.559Z,33.28
2023-05-12T12:14:38.538Z,33.32
2023-05-12T12:15:38.561Z,33.25
2023-05-12T12:16:38.574Z,33.13
2023-05-12T12:17:38.583Z,33.20
2023-05-12T12:18:38.557Z,33.27
2023-05-12T12:19:38.512Z,33.22
2023-05-12T12:20:38.502Z,33.27
2023-05-12T12:21:38.497Z,33.25
2023-05-12T12:22:38.477Z,33.27
2023-05-12T12:23:50.379Z,33.19
2023-05-12T12:24:39.472Z,33.21
2023-05-12T12:25:38.482Z,33.19
2023-05-12T12:26:39.533Z,33.23
2023-05-12T12:27:38.446Z,33.08
2023-05-12T12:28:38.435Z,33.18
2023-05-12T12:29:38.442Z,33.16
2023-05-12T12:30:38.420Z,33.16
2023-05-12T12:31:38.503Z,33.18
2023-05-12T12:32:38.453Z,33.14
2023-05-12T12:33:38.410Z,33.06
2023-05-12T12:34:38.398Z,33.09
2023-05-12T12:35:38.395Z,33.08
2023-05-12T12:36:38.380Z,33.07
2023-05-12T12:37:38.388Z,32.98
2023-05-12T12:38:38.372Z,33.07
2023-05-12T12:39:38.385Z,33.04
2023-05-12T12:40:38.348Z,32.98
2023-05-12T12:41:38.477Z,32.91
2023-05-12T12:42:38.385Z,32.98
2023-05-12T12:43:38.328Z,32.98
2023-05-12T12:44:38.335Z,32.97
2023-05-12T12:45:38.314Z,33.01
2023-05-12T12:46:38.357Z,32.96
2023-05-12T12:47:38.359Z,32.87
2023-05-12T12:48:38.291Z,32.97
2023-05-12T12:49:38.307Z,32.91
2023-05-12T12:50:38.321Z,32.92
2023-05-12T12:51:45.650Z,32.98
2023-05-12T12:52:39.276Z,32.80
2023-05-12T12:53:38.270Z,32.74
2023-05-12T12:54:38.288Z,32.83